sensor_id;sensor_type;location;lat;lon;timestamp;temperature;humidity
75994;DHT22;64680;53.800;9.988;2023-05-19T00:01:29;4.20;52.90
75994;DHT22;64680;53.800;9.988;2023-05-19T00:03:56;4.20;53.10
75994;DHT22;64680;53.800;9.988;2023-05-19T00:06:25;4.10;53.70
75994;DHT22;64680;53.800;9.988;2023-05-19T00:09:03;4.10;53.90
75994;DHT22;64680;53.800;9.988;2023-05-19T00:11:29;4.00;54.10
75994;DHT22;64680;53.800;9.988;2023-05-19T00:13:58;4.00;54.20
75994;DHT22;64680;53.800;9.988;2023-05-19T00:16:26;4.00;55.00
75994;DHT22;64680;53.800;9.988;2023-05-19T00:18:52;4.00;56.40
75994;DHT22;64680;53.800;9.988;2023-05-19T00:21:18;4.00;56.30
75994;DHT22;64680;53.800;9.988;2023-05-19T00:23:44;3.90;56.70
75994;DHT22;64680;53.800;9.988;2023-05-19T00:26:10;4.00;56.30
75994;DHT22;64680;53.800;9.988;2023-05-19T00:28:36;3.90;55.90
75994;DHT22;64680;53.800;9.988;2023-05-19T00:31:03;3.90;55.60
75994;DHT22;64680;53.800;9.988;2023-05-19T00:33:29;3.80;56.00
75994;DHT22;64680;53.800;9.988;2023-05-19T00:35:55;3.80;56.80
75994;DHT22;64680;53.800;9.988;2023-05-19T00:38:20;3.70;57.40
75994;DHT22;64680;53.800;9.988;2023-05-19T00:40:46;3.70;57.40
75994;DHT22;64680;53.800;9.988;2023-05-19T00:43:12;3.70;57.80
75994;DHT22;64680;53.800;9.988;2023-05-19T00:45:37;3.70;58.30
75994;DHT22;64680;53.800;9.988;2023-05-19T00:48:03;3.70;58.40
75994;DHT22;64680;53.800;9.988;2023-05-19T00:50:29;3.60;58.50
75994;DHT22;64680;53.800;9.988;2023-05-19T00:52:55;3.60;59.50
75994;DHT22;64680;53.800;9.988;2023-05-19T00:55:22;3.60;60.10
75994;DHT22;64680;53.800;9.988;2023-05-19T00:57:50;3.60;61.00
75994;DHT22;64680;53.800;9.988;2023-05-19T01:00:15;3.60;61.50
75994;DHT22;64680;53.800;9.988;2023-05-19T01:02:42;3.70;62.30
75994;DHT22;64680;53.800;9.988;2023-05-19T01:05:08;3.70;62.70
75994;DHT22;64680;53.800;9.988;2023-05-19T01:07:34;3.70;62.60
75994;DHT22;64680;53.800;9.988;2023-05-19T01:09:59;3.80;62.90
75994;DHT22;64680;53.800;9.988;2023-05-19T01:12:25;3.80;63.10
75994;DHT22;64680;53.800;9.988;2023-05-19T01:14:51;3.90;63.40
75994;DHT22;64680;53.800;9.988;2023-05-19T01:17:24;3.90;63.40
75994;DHT22;64680;53.800;9.988;2023-05-19T01:20:15;4.00;63.70
75994;DHT22;64680;53.800;9.988;2023-05-19T01:26:24;4.00;64.20
75994;DHT22;64680;53.800;9.988;2023-05-19T01:29:27;4.00;64.00
75994;DHT22;64680;53.800;9.988;2023-05-19T01:31:54;4.00;62.50
75994;DHT22;64680;53.800;9.988;2023-05-19T01:34:25;3.90;61.10
75994;DHT22;64680;53.800;9.988;2023-05-19T01:36:53;3.90;60.30
75994;DHT22;64680;53.800;9.988;2023-05-19T01:39:20;3.80;60.40
75994;DHT22;64680;53.800;9.988;2023-05-19T01:41:46;3.90;60.50
75994;DHT22;64680;53.800;9.988;2023-05-19T01:44:13;3.80;59.90
75994;DHT22;64680;53.800;9.988;2023-05-19T01:46:40;3.80;59.70
75994;DHT22;64680;53.800;9.988;2023-05-19T01:49:06;3.80;59.90
75994;DHT22;64680;53.800;9.988;2023-05-19T01:51:32;3.70;59.70
75994;DHT22;64680;53.800;9.988;2023-05-19T01:53:58;3.70;59.50
75994;DHT22;64680;53.800;9.988;2023-05-19T01:56:45;3.70;59.20
75994;DHT22;64680;53.800;9.988;2023-05-19T01:59:50;3.70;59.70
75994;DHT22;64680;53.800;9.988;2023-05-19T02:02:30;3.70;60.30
75994;DHT22;64680;53.800;9.988;2023-05-19T02:05:05;3.70;61.10
75994;DHT22;64680;53.800;9.988;2023-05-19T02:07:42;3.80;62.50
75994;DHT22;64680;53.800;9.988;2023-05-19T02:10:21;3.80;63.90
75994;DHT22;64680;53.800;9.988;2023-05-19T02:12:51;3.90;65.20
75994;DHT22;64680;53.800;9.988;2023-05-19T02:15:22;3.90;66.00
75994;DHT22;64680;53.800;9.988;2023-05-19T02:17:49;3.90;66.80
75994;DHT22;64680;53.800;9.988;2023-05-19T02:20:16;4.00;67.00
75994;DHT22;64680;53.800;9.988;2023-05-19T02:22:42;4.00;66.80
75994;DHT22;64680;53.800;9.988;2023-05-19T02:25:09;3.90;65.30
75994;DHT22;64680;53.800;9.988;2023-05-19T02:27:36;3.90;64.60
75994;DHT22;64680;53.800;9.988;2023-05-19T02:30:05;3.90;64.10
75994;DHT22;64680;53.800;9.988;2023-05-19T02:32:31;3.90;64.00
75994;DHT22;64680;53.800;9.988;2023-05-19T02:34:57;3.90;64.90
75994;DHT22;64680;53.800;9.988;2023-05-19T02:37:23;3.90;64.80
75994;DHT22;64680;53.800;9.988;2023-05-19T02:39:49;3.90;65.20
75994;DHT22;64680;53.800;9.988;2023-05-19T02:42:15;3.90;65.80
75994;DHT22;64680;53.800;9.988;2023-05-19T02:44:42;4.00;66.10
75994;DHT22;64680;53.800;9.988;2023-05-19T02:47:08;4.00;66.20
75994;DHT22;64680;53.800;9.988;2023-05-19T02:49:34;4.00;66.20
75994;DHT22;64680;53.800;9.988;2023-05-19T02:52:01;4.00;66.20
75994;DHT22;64680;53.800;9.988;2023-05-19T02:54:28;4.00;66.50
75994;DHT22;64680;53.800;9.988;2023-05-19T02:56:54;4.10;67.10
75994;DHT22;64680;53.800;9.988;2023-05-19T02:59:20;4.10;67.40
75994;DHT22;64680;53.800;9.988;2023-05-19T03:01:46;4.10;67.50
75994;DHT22;64680;53.800;9.988;2023-05-19T03:04:12;4.10;67.60
75994;DHT22;64680;53.800;9.988;2023-05-19T03:06:38;4.20;68.00
75994;DHT22;64680;53.800;9.988;2023-05-19T03:09:04;4.20;65.90
75994;DHT22;64680;53.800;9.988;2023-05-19T03:11:30;4.10;65.60
75994;DHT22;64680;53.800;9.988;2023-05-19T03:13:57;4.20;66.10
75994;DHT22;64680;53.800;9.988;2023-05-19T03:16:22;4.20;66.60
75994;DHT22;64680;53.800;9.988;2023-05-19T03:18:49;4.20;66.80
75994;DHT22;64680;53.800;9.988;2023-05-19T03:21:15;4.30;67.30
75994;DHT22;64680;53.800;9.988;2023-05-19T03:23:41;4.40;67.60
75994;DHT22;64680;53.800;9.988;2023-05-19T03:26:06;4.40;67.50
75994;DHT22;64680;53.800;9.988;2023-05-19T03:28:32;4.40;67.50
75994;DHT22;64680;53.800;9.988;2023-05-19T03:30:58;4.50;67.40
75994;DHT22;64680;53.800;9.988;2023-05-19T03:33:23;4.50;67.00
75994;DHT22;64680;53.800;9.988;2023-05-19T03:35:49;4.60;67.00
75994;DHT22;64680;53.800;9.988;2023-05-19T03:38:15;4.70;66.30
75994;DHT22;64680;53.800;9.988;2023-05-19T03:40:40;4.80;65.70
75994;DHT22;64680;53.800;9.988;2023-05-19T03:43:06;4.80;65.70
75994;DHT22;64680;53.800;9.988;2023-05-19T03:45:32;4.90;65.50
75994;DHT22;64680;53.800;9.988;2023-05-19T03:47:57;5.00;65.00
75994;DHT22;64680;53.800;9.988;2023-05-19T03:50:23;5.10;64.40
75994;DHT22;64680;53.800;9.988;2023-05-19T03:52:49;5.20;63.50
75994;DHT22;64680;53.800;9.988;2023-05-19T03:55:14;5.20;63.80
75994;DHT22;64680;53.800;9.988;2023-05-19T03:57:41;5.30;63.60
75994;DHT22;64680;53.800;9.988;2023-05-19T04:00:08;5.40;62.80
75994;DHT22;64680;53.800;9.988;2023-05-19T04:02:35;5.50;63.30
75994;DHT22;64680;53.800;9.988;2023-05-19T04:05:01;5.60;62.70
75994;DHT22;64680;53.800;9.988;2023-05-19T04:07:29;5.70;61.60
75994;DHT22;64680;53.800;9.988;2023-05-19T04:09:55;5.80;59.80
75994;DHT22;64680;53.800;9.988;2023-05-19T04:12:21;5.90;59.30
75994;DHT22;64680;53.800;9.988;2023-05-19T04:14:47;6.00;57.60
75994;DHT22;64680;53.800;9.988;2023-05-19T04:17:12;6.10;57.40
75994;DHT22;64680;53.800;9.988;2023-05-19T04:19:38;6.30;55.70
75994;DHT22;64680;53.800;9.988;2023-05-19T04:22:04;6.40;55.40
75994;DHT22;64680;53.800;9.988;2023-05-19T04:24:30;6.60;54.60
75994;DHT22;64680;53.800;9.988;2023-05-19T04:26:56;6.70;52.60
75994;DHT22;64680;53.800;9.988;2023-05-19T04:29:21;6.80;51.20
75994;DHT22;64680;53.800;9.988;2023-05-19T04:31:48;7.00;50.00
75994;DHT22;64680;53.800;9.988;2023-05-19T04:34:13;7.20;50.10
75994;DHT22;64680;53.800;9.988;2023-05-19T04:36:39;7.40;48.00
75994;DHT22;64680;53.800;9.988;2023-05-19T04:39:04;7.60;43.60
75994;DHT22;64680;53.800;9.988;2023-05-19T04:41:39;7.80;44.00
75994;DHT22;64680;53.800;9.988;2023-05-19T04:44:07;7.90;41.70
75994;DHT22;64680;53.800;9.988;2023-05-19T04:46:33;8.10;37.40
75994;DHT22;64680;53.800;9.988;2023-05-19T04:48:59;8.20;36.40
75994;DHT22;64680;53.800;9.988;2023-05-19T04:51:26;8.20;35.80
75994;DHT22;64680;53.800;9.988;2023-05-19T04:53:53;8.30;34.40
75994;DHT22;64680;53.800;9.988;2023-05-19T04:56:19;8.40;33.60
75994;DHT22;64680;53.800;9.988;2023-05-19T04:58:45;8.50;33.30
75994;DHT22;64680;53.800;9.988;2023-05-19T05:01:10;8.60;32.20
75994;DHT22;64680;53.800;9.988;2023-05-19T05:03:38;8.80;32.20
75994;DHT22;64680;53.800;9.988;2023-05-19T05:06:04;8.80;28.50
75994;DHT22;64680;53.800;9.988;2023-05-19T05:08:30;8.80;26.80
75994;DHT22;64680;53.800;9.988;2023-05-19T05:10:56;8.90;27.20
75994;DHT22;64680;53.800;9.988;2023-05-19T05:13:23;8.90;24.70
75994;DHT22;64680;53.800;9.988;2023-05-19T05:15:52;8.90;20.80
75994;DHT22;64680;53.800;9.988;2023-05-19T05:18:18;8.90;23.90
75994;DHT22;64680;53.800;9.988;2023-05-19T05:20:45;9.00;22.80
75994;DHT22;64680;53.800;9.988;2023-05-19T05:23:11;9.10;22.20
75994;DHT22;64680;53.800;9.988;2023-05-19T05:25:42;9.30;19.20
75994;DHT22;64680;53.800;9.988;2023-05-19T05:28:08;9.30;15.60
75994;DHT22;64680;53.800;9.988;2023-05-19T05:30:34;9.40;16.80
75994;DHT22;64680;53.800;9.988;2023-05-19T05:33:00;9.50;14.10
75994;DHT22;64680;53.800;9.988;2023-05-19T05:35:26;9.50;13.80
75994;DHT22;64680;53.800;9.988;2023-05-19T05:37:52;9.60;12.90
75994;DHT22;64680;53.800;9.988;2023-05-19T05:40:18;9.70;13.30
75994;DHT22;64680;53.800;9.988;2023-05-19T05:42:44;9.90;12.80
75994;DHT22;64680;53.800;9.988;2023-05-19T05:45:10;10.00;9.80
75994;DHT22;64680;53.800;9.988;2023-05-19T05:47:36;10.00;9.30
75994;DHT22;64680;53.800;9.988;2023-05-19T05:50:07;10.10;8.70
75994;DHT22;64680;53.800;9.988;2023-05-19T05:52:35;10.30;8.40
75994;DHT22;64680;53.800;9.988;2023-05-19T05:55:04;10.50;6.10
75994;DHT22;64680;53.800;9.988;2023-05-19T05:57:30;10.70;1.90
75994;DHT22;64680;53.800;9.988;2023-05-19T05:59:56;10.90;1.00
75994;DHT22;64680;53.800;9.988;2023-05-19T06:02:21;11.10;1.00
75994;DHT22;64680;53.800;9.988;2023-05-19T06:04:47;11.10;1.00
75994;DHT22;64680;53.800;9.988;2023-05-19T06:07:13;11.20;1.00
75994;DHT22;64680;53.800;9.988;2023-05-19T06:09:38;11.30;1.00
75994;DHT22;64680;53.800;9.988;2023-05-19T06:12:04;11.30;1.00
75994;DHT22;64680;53.800;9.988;2023-05-19T06:14:31;11.40;1.00
75994;DHT22;64680;53.800;9.988;2023-05-19T06:16:56;11.50;1.00
75994;DHT22;64680;53.800;9.988;2023-05-19T06:19:22;11.60;1.00
75994;DHT22;64680;53.800;9.988;2023-05-19T06:21:50;11.80;1.00
75994;DHT22;64680;53.800;9.988;2023-05-19T06:24:15;12.10;1.00
75994;DHT22;64680;53.800;9.988;2023-05-19T06:26:41;12.50;1.00
75994;DHT22;64680;53.800;9.988;2023-05-19T06:29:06;12.80;1.00
75994;DHT22;64680;53.800;9.988;2023-05-19T06:31:32;12.90;1.00
75994;DHT22;64680;53.800;9.988;2023-05-19T06:33:58;13.00;1.00
75994;DHT22;64680;53.800;9.988;2023-05-19T06:36:24;13.00;1.00
75994;DHT22;64680;53.800;9.988;2023-05-19T06:38:49;13.30;1.00
75994;DHT22;64680;53.800;9.988;2023-05-19T06:41:16;13.50;1.00
75994;DHT22;64680;53.800;9.988;2023-05-19T06:43:42;13.70;1.00
75994;DHT22;64680;53.800;9.988;2023-05-19T06:46:07;13.80;1.00
75994;DHT22;64680;53.800;9.988;2023-05-19T06:48:33;13.90;1.00
75994;DHT22;64680;53.800;9.988;2023-05-19T06:50:59;14.20;1.00
75994;DHT22;64680;53.800;9.988;2023-05-19T06:53:24;14.40;1.00
75994;DHT22;64680;53.800;9.988;2023-05-19T06:55:50;14.80;1.00
75994;DHT22;64680;53.800;9.988;2023-05-19T06:58:16;14.80;1.00
75994;DHT22;64680;53.800;9.988;2023-05-19T07:00:42;15.00;1.00
75994;DHT22;64680;53.800;9.988;2023-05-19T07:03:08;15.40;1.00
75994;DHT22;64680;53.800;9.988;2023-05-19T07:05:34;15.20;1.00
75994;DHT22;64680;53.800;9.988;2023-05-19T07:07:59;15.20;1.00
75994;DHT22;64680;53.800;9.988;2023-05-19T07:10:26;15.00;1.00
75994;DHT22;64680;53.800;9.988;2023-05-19T07:12:52;14.70;1.00
75994;DHT22;64680;53.800;9.988;2023-05-19T07:15:17;14.50;1.00
75994;DHT22;64680;53.800;9.988;2023-05-19T07:17:43;14.60;1.00
75994;DHT22;64680;53.800;9.988;2023-05-19T07:20:09;14.60;1.00
75994;DHT22;64680;53.800;9.988;2023-05-19T07:22:35;14.70;1.00
75994;DHT22;64680;53.800;9.988;2023-05-19T07:25:01;14.70;1.00
75994;DHT22;64680;53.800;9.988;2023-05-19T07:27:27;15.10;1.00
75994;DHT22;64680;53.800;9.988;2023-05-19T07:29:53;15.80;1.00
75994;DHT22;64680;53.800;9.988;2023-05-19T07:32:19;16.80;1.00
75994;DHT22;64680;53.800;9.988;2023-05-19T07:34:44;17.70;1.00
75994;DHT22;64680;53.800;9.988;2023-05-19T07:37:10;18.50;1.00
75994;DHT22;64680;53.800;9.988;2023-05-19T07:39:36;19.20;1.00
75994;DHT22;64680;53.800;9.988;2023-05-19T07:42:02;19.20;1.00
75994;DHT22;64680;53.800;9.988;2023-05-19T07:44:27;18.40;1.00
75994;DHT22;64680;53.800;9.988;2023-05-19T07:46:55;18.10;1.00
75994;DHT22;64680;53.800;9.988;2023-05-19T07:49:21;18.00;1.00
75994;DHT22;64680;53.800;9.988;2023-05-19T07:51:46;18.60;1.00
75994;DHT22;64680;53.800;9.988;2023-05-19T07:54:12;19.50;1.00
75994;DHT22;64680;53.800;9.988;2023-05-19T07:56:37;19.80;1.00
75994;DHT22;64680;53.800;9.988;2023-05-19T07:59:03;19.80;1.00
75994;DHT22;64680;53.800;9.988;2023-05-19T08:01:30;19.90;1.00
75994;DHT22;64680;53.800;9.988;2023-05-19T08:03:56;19.80;1.00
75994;DHT22;64680;53.800;9.988;2023-05-19T08:06:22;20.00;1.00
75994;DHT22;64680;53.800;9.988;2023-05-19T08:08:49;20.10;1.00
75994;DHT22;64680;53.800;9.988;2023-05-19T08:11:15;20.00;1.00
75994;DHT22;64680;53.800;9.988;2023-05-19T08:13:40;20.00;1.00
75994;DHT22;64680;53.800;9.988;2023-05-19T08:16:06;20.00;1.00
75994;DHT22;64680;53.800;9.988;2023-05-19T08:18:32;20.10;1.00
75994;DHT22;64680;53.800;9.988;2023-05-19T08:20:57;20.00;1.00
75994;DHT22;64680;53.800;9.988;2023-05-19T08:23:23;19.90;1.00
75994;DHT22;64680;53.800;9.988;2023-05-19T08:25:49;19.90;1.00
75994;DHT22;64680;53.800;9.988;2023-05-19T08:28:14;19.90;1.00
75994;DHT22;64680;53.800;9.988;2023-05-19T08:30:40;20.00;1.00
75994;DHT22;64680;53.800;9.988;2023-05-19T08:33:06;20.10;1.00
75994;DHT22;64680;53.800;9.988;2023-05-19T08:35:32;20.00;1.00
75994;DHT22;64680;53.800;9.988;2023-05-19T08:37:58;19.90;1.00
75994;DHT22;64680;53.800;9.988;2023-05-19T08:40:24;19.90;1.00
75994;DHT22;64680;53.800;9.988;2023-05-19T08:42:52;20.10;1.00
75994;DHT22;64680;53.800;9.988;2023-05-19T08:45:18;20.20;1.00
75994;DHT22;64680;53.800;9.988;2023-05-19T08:47:45;20.30;1.00
75994;DHT22;64680;53.800;9.988;2023-05-19T08:50:12;20.20;1.00
75994;DHT22;64680;53.800;9.988;2023-05-19T08:52:55;20.40;1.00
75994;DHT22;64680;53.800;9.988;2023-05-19T08:55:34;20.70;1.00
75994;DHT22;64680;53.800;9.988;2023-05-19T08:58:03;20.80;1.00
75994;DHT22;64680;53.800;9.988;2023-05-19T09:00:29;20.50;1.00
75994;DHT22;64680;53.800;9.988;2023-05-19T09:02:55;20.70;1.00
75994;DHT22;64680;53.800;9.988;2023-05-19T09:05:21;20.80;1.00
75994;DHT22;64680;53.800;9.988;2023-05-19T09:07:47;20.70;1.00
75994;DHT22;64680;53.800;9.988;2023-05-19T09:10:13;20.60;1.00
75994;DHT22;64680;53.800;9.988;2023-05-19T09:12:41;20.40;1.00
75994;DHT22;64680;53.800;9.988;2023-05-19T09:15:10;20.30;1.00
75994;DHT22;64680;53.800;9.988;2023-05-19T09:17:37;20.00;1.00
75994;DHT22;64680;53.800;9.988;2023-05-19T09:20:03;20.10;1.00
75994;DHT22;64680;53.800;9.988;2023-05-19T09:22:32;20.30;1.00
75994;DHT22;64680;53.800;9.988;2023-05-19T09:25:00;20.20;1.00
75994;DHT22;64680;53.800;9.988;2023-05-19T09:27:25;20.10;1.00
75994;DHT22;64680;53.800;9.988;2023-05-19T09:29:51;20.40;1.00
75994;DHT22;64680;53.800;9.988;2023-05-19T09:32:26;20.60;1.00
75994;DHT22;64680;53.800;9.988;2023-05-19T09:34:55;20.70;1.00
75994;DHT22;64680;53.800;9.988;2023-05-19T09:37:22;20.80;1.00
75994;DHT22;64680;53.800;9.988;2023-05-19T09:39:48;20.80;1.00
75994;DHT22;64680;53.800;9.988;2023-05-19T09:42:23;20.70;1.00
75994;DHT22;64680;53.800;9.988;2023-05-19T09:44:52;20.50;1.00
75994;DHT22;64680;53.800;9.988;2023-05-19T09:47:23;20.60;1.00
75994;DHT22;64680;53.800;9.988;2023-05-19T09:49:49;20.40;1.00
75994;DHT22;64680;53.800;9.988;2023-05-19T09:52:16;20.40;1.00
75994;DHT22;64680;53.800;9.988;2023-05-19T09:54:44;20.30;1.00
75994;DHT22;64680;53.800;9.988;2023-05-19T09:57:09;20.10;1.00
75994;DHT22;64680;53.800;9.988;2023-05-19T09:59:35;20.40;1.00
75994;DHT22;64680;53.800;9.988;2023-05-19T10:02:03;20.60;1.00
75994;DHT22;64680;53.800;9.988;2023-05-19T10:04:30;20.50;1.00
75994;DHT22;64680;53.800;9.988;2023-05-19T10:06:57;20.30;1.00
75994;DHT22;64680;53.800;9.988;2023-05-19T10:09:29;20.70;1.00
75994;DHT22;64680;53.800;9.988;2023-05-19T10:11:56;20.40;1.00
75994;DHT22;64680;53.800;9.988;2023-05-19T10:14:26;20.40;1.00
75994;DHT22;64680;53.800;9.988;2023-05-19T10:16:57;20.70;1.00
75994;DHT22;64680;53.800;9.988;2023-05-19T10:19:24;20.60;1.00
75994;DHT22;64680;53.800;9.988;2023-05-19T10:21:50;20.70;1.00
75994;DHT22;64680;53.800;9.988;2023-05-19T10:24:17;20.90;1.00
75994;DHT22;64680;53.800;9.988;2023-05-19T10:26:45;20.70;1.00
75994;DHT22;64680;53.800;9.988;2023-05-19T10:29:16;20.70;1.00
75994;DHT22;64680;53.800;9.988;2023-05-19T10:31:43;20.60;1.00
75994;DHT22;64680;53.800;9.988;2023-05-19T10:37:36;20.90;1.00
75994;DHT22;64680;53.800;9.988;2023-05-19T10:40:20;21.20;1.00
75994;DHT22;64680;53.800;9.988;2023-05-19T10:43:04;21.10;1.00
75994;DHT22;64680;53.800;9.988;2023-05-19T10:45:35;20.80;1.00
75994;DHT22;64680;53.800;9.988;2023-05-19T10:48:10;20.40;1.00
75994;DHT22;64680;53.800;9.988;2023-05-19T10:50:35;20.50;1.00
75994;DHT22;64680;53.800;9.988;2023-05-19T10:53:02;20.60;1.00
75994;DHT22;64680;53.800;9.988;2023-05-19T10:55:52;20.50;1.00
75994;DHT22;64680;53.800;9.988;2023-05-19T11:01:11;20.80;1.00
75994;DHT22;64680;53.800;9.988;2023-05-19T11:08:42;21.30;1.00
75994;DHT22;64680;53.800;9.988;2023-05-19T11:11:15;21.20;1.00
75994;DHT22;64680;53.800;9.988;2023-05-19T11:13:54;21.30;1.00
75994;DHT22;64680;53.800;9.988;2023-05-19T11:16:27;21.20;1.00
75994;DHT22;64680;53.800;9.988;2023-05-19T11:18:55;21.20;1.00
75994;DHT22;64680;53.800;9.988;2023-05-19T11:21:21;21.20;1.00
75994;DHT22;64680;53.800;9.988;2023-05-19T11:23:52;21.40;1.00
75994;DHT22;64680;53.800;9.988;2023-05-19T11:26:38;21.60;1.00
75994;DHT22;64680;53.800;9.988;2023-05-19T11:29:04;21.50;1.00
75994;DHT22;64680;53.800;9.988;2023-05-19T11:31:31;21.50;1.00
75994;DHT22;64680;53.800;9.988;2023-05-19T11:33:57;21.70;1.00
75994;DHT22;64680;53.800;9.988;2023-05-19T11:36:23;21.40;1.00
75994;DHT22;64680;53.800;9.988;2023-05-19T11:38:49;21.40;1.00
75994;DHT22;64680;53.800;9.988;2023-05-19T11:41:15;21.60;1.00
75994;DHT22;64680;53.800;9.988;2023-05-19T11:43:41;21.80;1.00
75994;DHT22;64680;53.800;9.988;2023-05-19T11:46:08;21.90;1.00
75994;DHT22;64680;53.800;9.988;2023-05-19T11:48:34;21.90;1.00
75994;DHT22;64680;53.800;9.988;2023-05-19T11:51:01;22.00;1.00
75994;DHT22;64680;53.800;9.988;2023-05-19T11:53:27;21.80;1.00
75994;DHT22;64680;53.800;9.988;2023-05-19T11:56:02;21.90;1.00
75994;DHT22;64680;53.800;9.988;2023-05-19T11:58:27;21.80;1.00
75994;DHT22;64680;53.800;9.988;2023-05-19T12:00:53;21.50;1.00
75994;DHT22;64680;53.800;9.988;2023-05-19T12:03:22;21.40;1.00
75994;DHT22;64680;53.800;9.988;2023-05-19T12:05:52;21.70;1.00
75994;DHT22;64680;53.800;9.988;2023-05-19T12:08:18;21.60;1.00
75994;DHT22;64680;53.800;9.988;2023-05-19T12:10:47;21.70;1.00
75994;DHT22;64680;53.800;9.988;2023-05-19T12:13:14;21.80;1.00
75994;DHT22;64680;53.800;9.988;2023-05-19T12:15:40;21.80;1.00
75994;DHT22;64680;53.800;9.988;2023-05-19T12:18:06;21.90;1.00
75994;DHT22;64680;53.800;9.988;2023-05-19T12:20:32;22.20;1.00
75994;DHT22;64680;53.800;9.988;2023-05-19T12:23:00;22.10;1.00
75994;DHT22;64680;53.800;9.988;2023-05-19T12:25:27;22.00;1.00
75994;DHT22;64680;53.800;9.988;2023-05-19T12:27:56;22.00;1.00
75994;DHT22;64680;53.800;9.988;2023-05-19T12:30:26;21.90;1.00
75994;DHT22;64680;53.800;9.988;2023-05-19T12:32:53;21.90;1.00
75994;DHT22;64680;53.800;9.988;2023-05-19T12:35:19;21.90;1.00
75994;DHT22;64680;53.800;9.988;2023-05-19T12:37:47;22.10;1.00
75994;DHT22;64680;53.800;9.988;2023-05-19T12:40:15;21.90;1.00
75994;DHT22;64680;53.800;9.988;2023-05-19T12:42:43;21.70;1.00
75994;DHT22;64680;53.800;9.988;2023-05-19T12:45:09;21.30;1.00
75994;DHT22;64680;53.800;9.988;2023-05-19T12:47:35;21.00;1.00
75994;DHT22;64680;53.800;9.988;2023-05-19T12:50:05;20.90;1.00
75994;DHT22;64680;53.800;9.988;2023-05-19T12:52:41;20.80;1.00
75994;DHT22;64680;53.800;9.988;2023-05-19T12:55:08;21.00;1.00
75994;DHT22;64680;53.800;9.988;2023-05-19T12:57:36;21.20;1.00
75994;DHT22;64680;53.800;9.988;2023-05-19T13:00:16;21.30;1.00
75994;DHT22;64680;53.800;9.988;2023-05-19T13:03:05;21.40;1.00
75994;DHT22;64680;53.800;9.988;2023-05-19T13:05:38;21.40;1.00
75994;DHT22;64680;53.800;9.988;2023-05-19T13:08:06;21.50;1.00
75994;DHT22;64680;53.800;9.988;2023-05-19T13:10:33;21.80;1.00
75994;DHT22;64680;53.800;9.988;2023-05-19T13:12:59;21.80;1.00
75994;DHT22;64680;53.800;9.988;2023-05-19T13:15:27;21.70;1.00
75994;DHT22;64680;53.800;9.988;2023-05-19T13:17:56;21.60;1.00
75994;DHT22;64680;53.800;9.988;2023-05-19T13:20:22;21.60;1.00
75994;DHT22;64680;53.800;9.988;2023-05-19T13:22:48;21.50;1.00
75994;DHT22;64680;53.800;9.988;2023-05-19T13:25:15;21.40;1.00
75994;DHT22;64680;53.800;9.988;2023-05-19T13:27:41;21.40;1.00
75994;DHT22;64680;53.800;9.988;2023-05-19T13:30:07;21.40;1.00
75994;DHT22;64680;53.800;9.988;2023-05-19T13:32:33;21.50;1.00
75994;DHT22;64680;53.800;9.988;2023-05-19T13:35:00;21.20;1.00
75994;DHT22;64680;53.800;9.988;2023-05-19T13:37:26;21.00;1.00
75994;DHT22;64680;53.800;9.988;2023-05-19T13:39:53;21.00;1.00
75994;DHT22;64680;53.800;9.988;2023-05-19T13:42:18;21.10;1.00
75994;DHT22;64680;53.800;9.988;2023-05-19T13:44:45;21.10;1.00
75994;DHT22;64680;53.800;9.988;2023-05-19T13:47:11;21.20;1.00
75994;DHT22;64680;53.800;9.988;2023-05-19T13:49:36;21.30;1.00
75994;DHT22;64680;53.800;9.988;2023-05-19T13:52:03;21.40;1.00
75994;DHT22;64680;53.800;9.988;2023-05-19T13:54:28;21.30;1.00
75994;DHT22;64680;53.800;9.988;2023-05-19T13:56:54;21.10;1.00
75994;DHT22;64680;53.800;9.988;2023-05-19T13:59:19;21.30;1.00
75994;DHT22;64680;53.800;9.988;2023-05-19T14:01:48;20.70;1.00
75994;DHT22;64680;53.800;9.988;2023-05-19T14:04:16;20.40;1.00
75994;DHT22;64680;53.800;9.988;2023-05-19T14:06:42;20.50;1.00
75994;DHT22;64680;53.800;9.988;2023-05-19T14:09:08;20.60;1.00
75994;DHT22;64680;53.800;9.988;2023-05-19T14:11:33;20.60;1.00
75994;DHT22;64680;53.800;9.988;2023-05-19T14:13:59;20.80;1.00
75994;DHT22;64680;53.800;9.988;2023-05-19T14:16:25;21.00;1.00
75994;DHT22;64680;53.800;9.988;2023-05-19T14:18:52;20.90;1.00
75994;DHT22;64680;53.800;9.988;2023-05-19T14:21:18;20.90;1.00
75994;DHT22;64680;53.800;9.988;2023-05-19T14:23:43;20.90;1.00
75994;DHT22;64680;53.800;9.988;2023-05-19T14:26:09;20.80;1.00
75994;DHT22;64680;53.800;9.988;2023-05-19T14:28:35;20.80;1.00
75994;DHT22;64680;53.800;9.988;2023-05-19T14:31:00;20.60;1.00
75994;DHT22;64680;53.800;9.988;2023-05-19T14:33:26;20.70;1.00
75994;DHT22;64680;53.800;9.988;2023-05-19T14:35:52;20.70;1.00
75994;DHT22;64680;53.800;9.988;2023-05-19T14:38:17;20.80;1.00
75994;DHT22;64680;53.800;9.988;2023-05-19T14:40:43;20.60;1.00
75994;DHT22;64680;53.800;9.988;2023-05-19T14:43:10;20.40;1.00
75994;DHT22;64680;53.800;9.988;2023-05-19T14:45:37;20.30;1.00
75994;DHT22;64680;53.800;9.988;2023-05-19T14:48:03;20.10;1.00
75994;DHT22;64680;53.800;9.988;2023-05-19T14:50:29;20.00;1.00
75994;DHT22;64680;53.800;9.988;2023-05-19T14:52:55;20.00;1.00
75994;DHT22;64680;53.800;9.988;2023-05-19T14:55:21;19.90;1.00
75994;DHT22;64680;53.800;9.988;2023-05-19T14:57:46;20.00;1.00
75994;DHT22;64680;53.800;9.988;2023-05-19T15:00:12;19.80;1.00
75994;DHT22;64680;53.800;9.988;2023-05-19T15:02:38;19.70;1.00
75994;DHT22;64680;53.800;9.988;2023-05-19T15:05:04;19.60;1.00
75994;DHT22;64680;53.800;9.988;2023-05-19T15:07:29;19.50;1.00
75994;DHT22;64680;53.800;9.988;2023-05-19T15:09:55;19.60;1.00
75994;DHT22;64680;53.800;9.988;2023-05-19T15:12:21;19.50;1.00
75994;DHT22;64680;53.800;9.988;2023-05-19T15:14:46;19.50;1.00
75994;DHT22;64680;53.800;9.988;2023-05-19T15:17:12;19.30;1.00
75994;DHT22;64680;53.800;9.988;2023-05-19T15:19:38;19.00;1.00
75994;DHT22;64680;53.800;9.988;2023-05-19T15:22:06;18.70;1.00
75994;DHT22;64680;53.800;9.988;2023-05-19T15:24:32;18.70;1.00
75994;DHT22;64680;53.800;9.988;2023-05-19T15:26:57;18.80;1.00
75994;DHT22;64680;53.800;9.988;2023-05-19T15:29:23;18.90;1.00
75994;DHT22;64680;53.800;9.988;2023-05-19T15:31:49;18.90;1.00
75994;DHT22;64680;53.800;9.988;2023-05-19T15:34:17;18.90;1.00
75994;DHT22;64680;53.800;9.988;2023-05-19T15:36:42;18.90;1.00
75994;DHT22;64680;53.800;9.988;2023-05-19T15:39:08;18.80;1.00
75994;DHT22;64680;53.800;9.988;2023-05-19T15:41:34;18.80;1.00
75994;DHT22;64680;53.800;9.988;2023-05-19T15:44:00;18.70;1.00
75994;DHT22;64680;53.800;9.988;2023-05-19T15:46:27;18.90;1.00
75994;DHT22;64680;53.800;9.988;2023-05-19T15:48:53;18.90;1.00
75994;DHT22;64680;53.800;9.988;2023-05-19T15:51:19;18.90;1.00
75994;DHT22;64680;53.800;9.988;2023-05-19T15:53:45;18.80;1.00
75994;DHT22;64680;53.800;9.988;2023-05-19T15:56:11;18.70;1.00
75994;DHT22;64680;53.800;9.988;2023-05-19T15:58:37;18.60;1.00
75994;DHT22;64680;53.800;9.988;2023-05-19T16:01:04;18.60;1.00